sensor_id;sensor_type;location;lat;lon;timestamp;temperature;humidity
4279;DHT22;2153;47.744;10.580;2022-08-27T00:01:07;15.70;99.90
4279;DHT22;2153;47.744;10.580;2022-08-27T00:03:34;15.60;99.90
4279;DHT22;2153;47.744;10.580;2022-08-27T00:06:01;15.60;99.90
4279;DHT22;2153;47.744;10.580;2022-08-27T00:08:28;15.70;99.90
4279;DHT22;2153;47.744;10.580;2022-08-27T00:10:56;15.70;99.90
4279;DHT22;2153;47.744;10.580;2022-08-27T00:13:23;15.70;99.90
4279;DHT22;2153;47.744;10.580;2022-08-27T00:15:50;15.70;99.90
4279;DHT22;2153;47.744;10.580;2022-08-27T00:18:17;15.70;99.90
4279;DHT22;2153;47.744;10.580;2022-08-27T00:20:44;15.60;99.90
4279;DHT22;2153;47.744;10.580;2022-08-27T00:23:11;15.70;99.90
4279;DHT22;2153;47.744;10.580;2022-08-27T00:25:38;15.70;99.90
4279;DHT22;2153;47.744;10.580;2022-08-27T00:28:06;15.80;99.90
4279;DHT22;2153;47.744;10.580;2022-08-27T00:30:32;15.90;99.90
4279;DHT22;2153;47.744;10.580;2022-08-27T00:32:59;15.90;99.90
4279;DHT22;2153;47.744;10.580;2022-08-27T00:35:27;15.90;99.90
4279;DHT22;2153;47.744;10.580;2022-08-27T00:37:54;15.90;99.90
4279;DHT22;2153;47.744;10.580;2022-08-27T00:40:21;15.90;99.90
4279;DHT22;2153;47.744;10.580;2022-08-27T00:42:48;15.90;99.90
4279;DHT22;2153;47.744;10.580;2022-08-27T00:45:19;15.90;99.90
4279;DHT22;2153;47.744;10.580;2022-08-27T00:47:50;16.00;99.90
4279;DHT22;2153;47.744;10.580;2022-08-27T00:50:33;15.90;99.90
4279;DHT22;2153;47.744;10.580;2022-08-27T00:53:02;15.90;99.90
4279;DHT22;2153;47.744;10.580;2022-08-27T00:55:32;15.80;99.90
4279;DHT22;2153;47.744;10.580;2022-08-27T00:58:05;15.80;99.90
4279;DHT22;2153;47.744;10.580;2022-08-27T01:00:35;15.80;99.90
4279;DHT22;2153;47.744;10.580;2022-08-27T01:03:02;15.80;99.90
4279;DHT22;2153;47.744;10.580;2022-08-27T01:05:29;15.80;99.90
4279;DHT22;2153;47.744;10.580;2022-08-27T01:08:02;15.80;99.90
4279;DHT22;2153;47.744;10.580;2022-08-27T01:10:30;15.80;99.90
4279;DHT22;2153;47.744;10.580;2022-08-27T01:12:57;15.70;99.90
4279;DHT22;2153;47.744;10.580;2022-08-27T01:15:25;15.70;99.90
4279;DHT22;2153;47.744;10.580;2022-08-27T01:17:55;15.70;99.90
4279;DHT22;2153;47.744;10.580;2022-08-27T01:20:24;15.70;99.90
4279;DHT22;2153;47.744;10.580;2022-08-27T01:23:00;15.70;99.90
4279;DHT22;2153;47.744;10.580;2022-08-27T01:25:31;15.80;99.90
4279;DHT22;2153;47.744;10.580;2022-08-27T01:28:00;15.80;99.90
4279;DHT22;2153;47.744;10.580;2022-08-27T01:30:28;15.70;99.90
4279;DHT22;2153;47.744;10.580;2022-08-27T01:32:56;15.70;99.90
4279;DHT22;2153;47.744;10.580;2022-08-27T01:35:23;15.70;99.90
4279;DHT22;2153;47.744;10.580;2022-08-27T01:37:53;15.70;99.90
4279;DHT22;2153;47.744;10.580;2022-08-27T01:40:20;15.70;99.90
4279;DHT22;2153;47.744;10.580;2022-08-27T01:42:50;15.70;99.90
4279;DHT22;2153;47.744;10.580;2022-08-27T01:45:19;15.60;99.90
4279;DHT22;2153;47.744;10.580;2022-08-27T01:47:46;15.60;99.90
4279;DHT22;2153;47.744;10.580;2022-08-27T01:50:15;15.50;99.90
4279;DHT22;2153;47.744;10.580;2022-08-27T01:52:43;15.50;99.90
4279;DHT22;2153;47.744;10.580;2022-08-27T01:55:13;15.50;99.90
4279;DHT22;2153;47.744;10.580;2022-08-27T01:57:41;15.40;99.90
4279;DHT22;2153;47.744;10.580;2022-08-27T02:00:14;15.40;99.90
4279;DHT22;2153;47.744;10.580;2022-08-27T02:02:41;15.40;99.90
4279;DHT22;2153;47.744;10.580;2022-08-27T02:05:09;15.40;99.90
4279;DHT22;2153;47.744;10.580;2022-08-27T02:07:36;15.50;99.90
4279;DHT22;2153;47.744;10.580;2022-08-27T02:10:03;15.50;99.90
4279;DHT22;2153;47.744;10.580;2022-08-27T02:12:30;15.50;99.90
4279;DHT22;2153;47.744;10.580;2022-08-27T02:14:57;15.40;99.90
4279;DHT22;2153;47.744;10.580;2022-08-27T02:17:25;15.40;99.90
4279;DHT22;2153;47.744;10.580;2022-08-27T02:19:51;15.40;99.90
4279;DHT22;2153;47.744;10.580;2022-08-27T02:22:18;15.30;99.90
4279;DHT22;2153;47.744;10.580;2022-08-27T02:24:45;15.40;99.90
4279;DHT22;2153;47.744;10.580;2022-08-27T02:27:12;15.30;99.90
4279;DHT22;2153;47.744;10.580;2022-08-27T02:29:39;15.30;99.90
4279;DHT22;2153;47.744;10.580;2022-08-27T02:32:06;15.30;99.90
4279;DHT22;2153;47.744;10.580;2022-08-27T02:34:34;15.30;99.90
4279;DHT22;2153;47.744;10.580;2022-08-27T02:37:01;15.30;99.90
4279;DHT22;2153;47.744;10.580;2022-08-27T02:39:28;15.30;99.90
4279;DHT22;2153;47.744;10.580;2022-08-27T02:41:54;15.30;99.90
4279;DHT22;2153;47.744;10.580;2022-08-27T02:44:21;15.40;99.90
4279;DHT22;2153;47.744;10.580;2022-08-27T02:46:48;15.40;99.90
4279;DHT22;2153;47.744;10.580;2022-08-27T02:49:14;15.50;99.90
4279;DHT22;2153;47.744;10.580;2022-08-27T02:51:43;15.50;99.90
4279;DHT22;2153;47.744;10.580;2022-08-27T02:54:10;15.50;99.90
4279;DHT22;2153;47.744;10.580;2022-08-27T02:56:37;15.50;99.90
4279;DHT22;2153;47.744;10.580;2022-08-27T02:59:04;15.50;99.90
4279;DHT22;2153;47.744;10.580;2022-08-27T03:01:31;15.50;99.90
4279;DHT22;2153;47.744;10.580;2022-08-27T03:03:58;15.60;99.90
4279;DHT22;2153;47.744;10.580;2022-08-27T03:06:25;15.60;99.90
4279;DHT22;2153;47.744;10.580;2022-08-27T03:08:53;15.60;99.90
4279;DHT22;2153;47.744;10.580;2022-08-27T03:11:20;15.60;99.90
4279;DHT22;2153;47.744;10.580;2022-08-27T03:13:48;15.60;99.90
4279;DHT22;2153;47.744;10.580;2022-08-27T03:16:15;15.60;99.90
4279;DHT22;2153;47.744;10.580;2022-08-27T03:18:42;15.60;99.90
4279;DHT22;2153;47.744;10.580;2022-08-27T03:21:08;15.60;99.90
4279;DHT22;2153;47.744;10.580;2022-08-27T03:23:34;15.60;99.90
4279;DHT22;2153;47.744;10.580;2022-08-27T03:26:06;15.50;99.90
4279;DHT22;2153;47.744;10.580;2022-08-27T03:28:35;15.50;99.90
4279;DHT22;2153;47.744;10.580;2022-08-27T03:31:05;15.50;99.90
4279;DHT22;2153;47.744;10.580;2022-08-27T03:33:34;15.50;99.90
4279;DHT22;2153;47.744;10.580;2022-08-27T03:36:02;15.50;99.90
4279;DHT22;2153;47.744;10.580;2022-08-27T03:38:29;15.50;99.90
4279;DHT22;2153;47.744;10.580;2022-08-27T03:40:56;15.50;99.90
4279;DHT22;2153;47.744;10.580;2022-08-27T03:43:24;15.50;99.90
4279;DHT22;2153;47.744;10.580;2022-08-27T03:45:51;15.50;99.90
4279;DHT22;2153;47.744;10.580;2022-08-27T03:48:18;15.50;99.90
4279;DHT22;2153;47.744;10.580;2022-08-27T03:50:47;15.50;99.90
4279;DHT22;2153;47.744;10.580;2022-08-27T03:53:16;15.50;99.90
4279;DHT22;2153;47.744;10.580;2022-08-27T03:55:44;15.50;99.90
4279;DHT22;2153;47.744;10.580;2022-08-27T03:58:11;15.50;99.90
4279;DHT22;2153;47.744;10.580;2022-08-27T04:00:40;15.40;99.90
4279;DHT22;2153;47.744;10.580;2022-08-27T04:03:07;15.50;99.90
4279;DHT22;2153;47.744;10.580;2022-08-27T04:05:34;15.50;99.90
4279;DHT22;2153;47.744;10.580;2022-08-27T04:08:02;15.50;99.90
4279;DHT22;2153;47.744;10.580;2022-08-27T04:10:29;15.50;99.90
4279;DHT22;2153;47.744;10.580;2022-08-27T04:12:56;15.50;99.90
4279;DHT22;2153;47.744;10.580;2022-08-27T04:15:23;15.60;99.90
4279;DHT22;2153;47.744;10.580;2022-08-27T04:17:51;15.60;99.90
4279;DHT22;2153;47.744;10.580;2022-08-27T04:20:17;15.50;99.90
4279;DHT22;2153;47.744;10.580;2022-08-27T04:22:44;15.50;99.90
4279;DHT22;2153;47.744;10.580;2022-08-27T04:25:11;15.50;99.90
4279;DHT22;2153;47.744;10.580;2022-08-27T04:27:37;15.40;99.90
4279;DHT22;2153;47.744;10.580;2022-08-27T04:30:05;15.50;99.90
4279;DHT22;2153;47.744;10.580;2022-08-27T04:32:34;15.50;99.90
4279;DHT22;2153;47.744;10.580;2022-08-27T04:35:02;15.50;99.90
4279;DHT22;2153;47.744;10.580;2022-08-27T04:37:30;15.60;99.90
4279;DHT22;2153;47.744;10.580;2022-08-27T04:39:58;15.60;99.90
4279;DHT22;2153;47.744;10.580;2022-08-27T04:42:25;15.60;99.90
4279;DHT22;2153;47.744;10.580;2022-08-27T04:44:52;15.70;99.90
4279;DHT22;2153;47.744;10.580;2022-08-27T04:47:19;15.70;99.90
4279;DHT22;2153;47.744;10.580;2022-08-27T04:49:46;15.70;99.90
4279;DHT22;2153;47.744;10.580;2022-08-27T04:52:14;15.70;99.90
4279;DHT22;2153;47.744;10.580;2022-08-27T04:54:41;15.60;99.90
4279;DHT22;2153;47.744;10.580;2022-08-27T04:57:08;15.70;99.90
4279;DHT22;2153;47.744;10.580;2022-08-27T04:59:35;15.70;99.90
4279;DHT22;2153;47.744;10.580;2022-08-27T05:02:05;15.70;99.90
4279;DHT22;2153;47.744;10.580;2022-08-27T05:04:34;15.80;99.90
4279;DHT22;2153;47.744;10.580;2022-08-27T05:07:01;15.80;99.90
4279;DHT22;2153;47.744;10.580;2022-08-27T05:09:29;15.90;99.90
4279;DHT22;2153;47.744;10.580;2022-08-27T05:11:56;15.90;99.90
4279;DHT22;2153;47.744;10.580;2022-08-27T05:14:23;16.00;99.90
4279;DHT22;2153;47.744;10.580;2022-08-27T05:16:54;16.00;99.90
4279;DHT22;2153;47.744;10.580;2022-08-27T05:19:21;16.00;99.90
4279;DHT22;2153;47.744;10.580;2022-08-27T05:21:49;16.00;99.90
4279;DHT22;2153;47.744;10.580;2022-08-27T05:24:16;16.00;99.90
4279;DHT22;2153;47.744;10.580;2022-08-27T05:26:44;16.00;99.90
4279;DHT22;2153;47.744;10.580;2022-08-27T05:29:12;16.00;99.90
4279;DHT22;2153;47.744;10.580;2022-08-27T05:31:39;16.00;99.90
4279;DHT22;2153;47.744;10.580;2022-08-27T05:34:05;16.00;99.90
4279;DHT22;2153;47.744;10.580;2022-08-27T05:36:33;16.00;99.90
4279;DHT22;2153;47.744;10.580;2022-08-27T05:39:02;16.10;99.90
4279;DHT22;2153;47.744;10.580;2022-08-27T05:41:31;16.20;99.90
4279;DHT22;2153;47.744;10.580;2022-08-27T05:44:00;16.20;99.90
4279;DHT22;2153;47.744;10.580;2022-08-27T05:46:28;16.20;99.90
4279;DHT22;2153;47.744;10.580;2022-08-27T05:48:56;16.20;99.90
4279;DHT22;2153;47.744;10.580;2022-08-27T05:51:25;16.20;99.90
4279;DHT22;2153;47.744;10.580;2022-08-27T05:53:54;16.20;99.90
4279;DHT22;2153;47.744;10.580;2022-08-27T05:56:23;16.30;99.90
4279;DHT22;2153;47.744;10.580;2022-08-27T05:58:50;16.30;99.90
4279;DHT22;2153;47.744;10.580;2022-08-27T06:01:38;16.30;99.90
4279;DHT22;2153;47.744;10.580;2022-08-27T06:04:05;16.40;99.90
4279;DHT22;2153;47.744;10.580;2022-08-27T06:06:33;16.40;99.90
4279;DHT22;2153;47.744;10.580;2022-08-27T06:09:00;16.40;99.90
4279;DHT22;2153;47.744;10.580;2022-08-27T06:11:27;16.40;99.90
4279;DHT22;2153;47.744;10.580;2022-08-27T06:13:54;16.40;99.90
4279;DHT22;2153;47.744;10.580;2022-08-27T06:16:21;16.40;99.90
4279;DHT22;2153;47.744;10.580;2022-08-27T06:18:49;16.40;99.90
4279;DHT22;2153;47.744;10.580;2022-08-27T06:21:18;16.40;99.90
4279;DHT22;2153;47.744;10.580;2022-08-27T06:23:45;16.40;99.90
4279;DHT22;2153;47.744;10.580;2022-08-27T06:26:15;16.50;99.90
4279;DHT22;2153;47.744;10.580;2022-08-27T06:28:42;16.40;99.90
4279;DHT22;2153;47.744;10.580;2022-08-27T06:31:11;16.50;99.90
4279;DHT22;2153;47.744;10.580;2022-08-27T06:33:39;16.50;99.90
4279;DHT22;2153;47.744;10.580;2022-08-27T06:36:10;16.50;99.90
4279;DHT22;2153;47.744;10.580;2022-08-27T06:38:37;16.50;99.90
4279;DHT22;2153;47.744;10.580;2022-08-27T06:41:05;16.50;99.90
4279;DHT22;2153;47.744;10.580;2022-08-27T06:43:34;16.60;99.90
4279;DHT22;2153;47.744;10.580;2022-08-27T06:46:02;16.60;99.90
4279;DHT22;2153;47.744;10.580;2022-08-27T06:48:29;16.70;99.90
4279;DHT22;2153;47.744;10.580;2022-08-27T06:50:55;16.80;99.90
4279;DHT22;2153;47.744;10.580;2022-08-27T06:53:23;16.90;99.90
4279;DHT22;2153;47.744;10.580;2022-08-27T06:55:50;17.00;99.90
4279;DHT22;2153;47.744;10.580;2022-08-27T06:58:18;17.00;99.90
4279;DHT22;2153;47.744;10.580;2022-08-27T07:00:44;17.10;99.90
4279;DHT22;2153;47.744;10.580;2022-08-27T07:03:11;17.10;99.90
4279;DHT22;2153;47.744;10.580;2022-08-27T07:05:39;17.10;99.90
4279;DHT22;2153;47.744;10.580;2022-08-27T07:08:07;17.10;99.90
4279;DHT22;2153;47.744;10.580;2022-08-27T07:10:35;17.10;99.90
4279;DHT22;2153;47.744;10.580;2022-08-27T07:13:03;17.10;99.90
4279;DHT22;2153;47.744;10.580;2022-08-27T07:15:30;17.10;99.90
4279;DHT22;2153;47.744;10.580;2022-08-27T07:17:57;17.20;99.90
4279;DHT22;2153;47.744;10.580;2022-08-27T07:20:24;17.20;99.90
4279;DHT22;2153;47.744;10.580;2022-08-27T07:22:50;17.30;99.90
4279;DHT22;2153;47.744;10.580;2022-08-27T07:25:18;17.30;99.90
4279;DHT22;2153;47.744;10.580;2022-08-27T07:27:47;17.40;99.90
4279;DHT22;2153;47.744;10.580;2022-08-27T07:30:15;17.50;99.90
4279;DHT22;2153;47.744;10.580;2022-08-27T07:32:43;17.60;99.90
4279;DHT22;2153;47.744;10.580;2022-08-27T07:35:10;17.50;99.90
4279;DHT22;2153;47.744;10.580;2022-08-27T07:37:38;17.70;99.90
4279;DHT22;2153;47.744;10.580;2022-08-27T07:40:06;17.90;99.90
4279;DHT22;2153;47.744;10.580;2022-08-27T07:42:33;18.10;99.90
4279;DHT22;2153;47.744;10.580;2022-08-27T07:45:19;18.20;99.90
4279;DHT22;2153;47.744;10.580;2022-08-27T07:47:46;18.50;99.90
4279;DHT22;2153;47.744;10.580;2022-08-27T07:50:13;18.70;99.90
4279;DHT22;2153;47.744;10.580;2022-08-27T07:52:40;18.60;99.90
4279;DHT22;2153;47.744;10.580;2022-08-27T07:55:09;18.40;99.90
4279;DHT22;2153;47.744;10.580;2022-08-27T07:57:35;18.50;99.90
4279;DHT22;2153;47.744;10.580;2022-08-27T08:00:03;18.50;99.90
4279;DHT22;2153;47.744;10.580;2022-08-27T08:02:32;18.80;99.90
4279;DHT22;2153;47.744;10.580;2022-08-27T08:04:59;19.20;99.90
4279;DHT22;2153;47.744;10.580;2022-08-27T08:07:26;19.70;99.90
4279;DHT22;2153;47.744;10.580;2022-08-27T08:09:53;20.00;99.90
4279;DHT22;2153;47.744;10.580;2022-08-27T08:12:20;20.10;99.90
4279;DHT22;2153;47.744;10.580;2022-08-27T08:14:46;20.20;99.90
4279;DHT22;2153;47.744;10.580;2022-08-27T08:17:13;20.40;99.90
4279;DHT22;2153;47.744;10.580;2022-08-27T08:19:42;20.60;99.90
4279;DHT22;2153;47.744;10.580;2022-08-27T08:22:08;21.20;99.90
4279;DHT22;2153;47.744;10.580;2022-08-27T08:24:35;21.70;99.90
4279;DHT22;2153;47.744;10.580;2022-08-27T08:27:02;21.90;99.90
4279;DHT22;2153;47.744;10.580;2022-08-27T08:29:28;21.70;99.90
4279;DHT22;2153;47.744;10.580;2022-08-27T08:31:55;21.40;99.90
4279;DHT22;2153;47.744;10.580;2022-08-27T08:34:22;21.30;99.90
4279;DHT22;2153;47.744;10.580;2022-08-27T08:36:50;21.30;99.90
4279;DHT22;2153;47.744;10.580;2022-08-27T08:39:17;21.40;99.90
4279;DHT22;2153;47.744;10.580;2022-08-27T08:41:49;21.40;99.90
4279;DHT22;2153;47.744;10.580;2022-08-27T08:44:23;21.50;99.90
4279;DHT22;2153;47.744;10.580;2022-08-27T08:46:58;21.60;99.90
4279;DHT22;2153;47.744;10.580;2022-08-27T08:49:34;21.30;99.90
4279;DHT22;2153;47.744;10.580;2022-08-27T08:52:09;21.10;99.90
4279;DHT22;2153;47.744;10.580;2022-08-27T08:54:39;20.90;99.90
4279;DHT22;2153;47.744;10.580;2022-08-27T08:57:09;21.10;99.90
4279;DHT22;2153;47.744;10.580;2022-08-27T08:59:46;21.30;99.90
4279;DHT22;2153;47.744;10.580;2022-08-27T09:02:16;21.50;99.90
4279;DHT22;2153;47.744;10.580;2022-08-27T09:04:43;21.70;99.90
4279;DHT22;2153;47.744;10.580;2022-08-27T09:07:15;22.00;99.90
4279;DHT22;2153;47.744;10.580;2022-08-27T09:09:47;21.90;99.90
4279;DHT22;2153;47.744;10.580;2022-08-27T09:12:19;21.90;99.90
4279;DHT22;2153;47.744;10.580;2022-08-27T09:14:52;21.70;99.90
4279;DHT22;2153;47.744;10.580;2022-08-27T09:17:20;21.60;99.90
4279;DHT22;2153;47.744;10.580;2022-08-27T09:19:47;21.30;99.90
4279;DHT22;2153;47.744;10.580;2022-08-27T09:22:20;21.10;99.90
4279;DHT22;2153;47.744;10.580;2022-08-27T09:25:03;21.00;99.90
4279;DHT22;2153;47.744;10.580;2022-08-27T09:27:33;21.10;99.90
4279;DHT22;2153;47.744;10.580;2022-08-27T09:30:06;21.20;99.90
4279;DHT22;2153;47.744;10.580;2022-08-27T09:32:34;21.10;99.90
4279;DHT22;2153;47.744;10.580;2022-08-27T09:35:03;21.20;99.90
4279;DHT22;2153;47.744;10.580;2022-08-27T09:37:38;21.10;99.90
4279;DHT22;2153;47.744;10.580;2022-08-27T09:40:07;21.20;99.90
4279;DHT22;2153;47.744;10.580;2022-08-27T09:42:41;21.20;99.90
4279;DHT22;2153;47.744;10.580;2022-08-27T09:45:12;21.30;99.90
4279;DHT22;2153;47.744;10.580;2022-08-27T09:47:44;21.50;99.90
4279;DHT22;2153;47.744;10.580;2022-08-27T09:50:14;21.60;99.90
4279;DHT22;2153;47.744;10.580;2022-08-27T09:52:49;22.00;99.90
4279;DHT22;2153;47.744;10.580;2022-08-27T09:55:28;22.20;99.90
4279;DHT22;2153;47.744;10.580;2022-08-27T09:57:56;22.60;99.90
4279;DHT22;2153;47.744;10.580;2022-08-27T10:00:31;22.90;99.90
4279;DHT22;2153;47.744;10.580;2022-08-27T10:02:59;22.80;99.90
4279;DHT22;2153;47.744;10.580;2022-08-27T10:05:30;22.60;99.90
4279;DHT22;2153;47.744;10.580;2022-08-27T10:08:01;22.60;99.90
4279;DHT22;2153;47.744;10.580;2022-08-27T10:10:38;22.80;99.90
4279;DHT22;2153;47.744;10.580;2022-08-27T10:13:10;23.40;99.90
4279;DHT22;2153;47.744;10.580;2022-08-27T10:15:46;23.80;99.90
4279;DHT22;2153;47.744;10.580;2022-08-27T10:18:20;24.50;99.90
4279;DHT22;2153;47.744;10.580;2022-08-27T10:21:00;24.60;99.90
4279;DHT22;2153;47.744;10.580;2022-08-27T10:23:34;24.70;99.90
4279;DHT22;2153;47.744;10.580;2022-08-27T10:26:07;24.80;99.90
4279;DHT22;2153;47.744;10.580;2022-08-27T10:28:46;25.20;99.90
4279;DHT22;2153;47.744;10.580;2022-08-27T10:31:22;25.60;99.90
4279;DHT22;2153;47.744;10.580;2022-08-27T10:34:00;25.90;99.90
4279;DHT22;2153;47.744;10.580;2022-08-27T10:36:36;26.30;99.90
4279;DHT22;2153;47.744;10.580;2022-08-27T10:39:13;26.40;99.90
4279;DHT22;2153;47.744;10.580;2022-08-27T10:41:44;26.40;99.90
4279;DHT22;2153;47.744;10.580;2022-08-27T10:44:35;25.80;99.90
4279;DHT22;2153;47.744;10.580;2022-08-27T10:47:18;25.00;99.90
4279;DHT22;2153;47.744;10.580;2022-08-27T10:49:54;24.40;99.90
4279;DHT22;2153;47.744;10.580;2022-08-27T10:52:27;23.90;99.90
4279;DHT22;2153;47.744;10.580;2022-08-27T10:54:59;23.80;99.90
4279;DHT22;2153;47.744;10.580;2022-08-27T10:57:41;24.40;99.90
4279;DHT22;2153;47.744;10.580;2022-08-27T11:00:13;25.00;99.90
4279;DHT22;2153;47.744;10.580;2022-08-27T11:02:45;25.50;99.90
4279;DHT22;2153;47.744;10.580;2022-08-27T11:05:17;25.40;99.90
4279;DHT22;2153;47.744;10.580;2022-08-27T11:07:48;25.70;99.90
4279;DHT22;2153;47.744;10.580;2022-08-27T11:10:20;25.90;99.90
4279;DHT22;2153;47.744;10.580;2022-08-27T11:12:53;25.50;99.90
4279;DHT22;2153;47.744;10.580;2022-08-27T11:15:25;25.60;99.90
4279;DHT22;2153;47.744;10.580;2022-08-27T11:17:57;26.10;99.90
4279;DHT22;2153;47.744;10.580;2022-08-27T11:20:28;26.40;99.90
4279;DHT22;2153;47.744;10.580;2022-08-27T11:23:00;26.20;99.90
4279;DHT22;2153;47.744;10.580;2022-08-27T11:25:44;25.70;99.90
4279;DHT22;2153;47.744;10.580;2022-08-27T11:28:16;25.40;99.90
4279;DHT22;2153;47.744;10.580;2022-08-27T11:30:59;25.30;99.90
4279;DHT22;2153;47.744;10.580;2022-08-27T11:33:32;25.50;99.90
4279;DHT22;2153;47.744;10.580;2022-08-27T11:36:29;25.50;99.90
4279;DHT22;2153;47.744;10.580;2022-08-27T11:39:02;25.10;99.90
4279;DHT22;2153;47.744;10.580;2022-08-27T11:41:51;24.80;99.90
4279;DHT22;2153;47.744;10.580;2022-08-27T11:44:22;24.30;99.90
4279;DHT22;2153;47.744;10.580;2022-08-27T11:46:52;24.10;99.90
4279;DHT22;2153;47.744;10.580;2022-08-27T11:49:29;24.00;99.90
4279;DHT22;2153;47.744;10.580;2022-08-27T11:52:02;24.00;99.90
4279;DHT22;2153;47.744;10.580;2022-08-27T11:54:30;23.90;99.90
4279;DHT22;2153;47.744;10.580;2022-08-27T11:56:58;24.50;99.90
4279;DHT22;2153;47.744;10.580;2022-08-27T11:59:30;25.10;99.90
4279;DHT22;2153;47.744;10.580;2022-08-27T12:02:10;25.20;99.90
4279;DHT22;2153;47.744;10.580;2022-08-27T12:04:39;25.00;99.90
4279;DHT22;2153;47.744;10.580;2022-08-27T12:07:23;24.60;99.90
4279;DHT22;2153;47.744;10.580;2022-08-27T12:10:03;24.20;99.90
4279;DHT22;2153;47.744;10.580;2022-08-27T12:13:02;23.90;99.90
4279;DHT22;2153;47.744;10.580;2022-08-27T12:15:51;23.80;99.90
4279;DHT22;2153;47.744;10.580;2022-08-27T12:18:38;23.60;99.90
4279;DHT22;2153;47.744;10.580;2022-08-27T12:21:14;23.50;99.90
4279;DHT22;2153;47.744;10.580;2022-08-27T12:23:51;23.60;99.90
4279;DHT22;2153;47.744;10.580;2022-08-27T12:26:29;23.60;99.90
4279;DHT22;2153;47.744;10.580;2022-08-27T12:32:09;23.40;99.90
4279;DHT22;2153;47.744;10.580;2022-08-27T12:34:47;23.40;99.90
4279;DHT22;2153;47.744;10.580;2022-08-27T12:37:16;23.40;99.90
4279;DHT22;2153;47.744;10.580;2022-08-27T12:39:46;23.30;99.90
4279;DHT22;2153;47.744;10.580;2022-08-27T12:42:16;23.20;99.90
4279;DHT22;2153;47.744;10.580;2022-08-27T12:44:44;23.30;99.90
4279;DHT22;2153;47.744;10.580;2022-08-27T12:47:12;23.40;99.90
4279;DHT22;2153;47.744;10.580;2022-08-27T12:49:45;23.30;99.90
4279;DHT22;2153;47.744;10.580;2022-08-27T12:52:22;23.40;99.90
4279;DHT22;2153;47.744;10.580;2022-08-27T12:55:02;23.50;99.90
4279;DHT22;2153;47.744;10.580;2022-08-27T12:57:39;23.50;99.90
4279;DHT22;2153;47.744;10.580;2022-08-27T13:00:13;23.60;99.90
4279;DHT22;2153;47.744;10.580;2022-08-27T13:03:09;23.50;99.90
4279;DHT22;2153;47.744;10.580;2022-08-27T13:05:43;23.70;99.90
4279;DHT22;2153;47.744;10.580;2022-08-27T13:08:18;23.70;99.90
4279;DHT22;2153;47.744;10.580;2022-08-27T13:10:45;23.60;99.90
4279;DHT22;2153;47.744;10.580;2022-08-27T13:13:15;23.50;99.90
4279;DHT22;2153;47.744;10.580;2022-08-27T13:15:43;23.40;99.90
4279;DHT22;2153;47.744;10.580;2022-08-27T13:18:11;23.50;99.90
4279;DHT22;2153;47.744;10.580;2022-08-27T13:20:39;23.60;99.90
4279;DHT22;2153;47.744;10.580;2022-08-27T13:23:11;23.70;99.90
4279;DHT22;2153;47.744;10.580;2022-08-27T13:25:39;23.50;99.90
4279;DHT22;2153;47.744;10.580;2022-08-27T13:28:08;23.30;99.90
4279;DHT22;2153;47.744;10.580;2022-08-27T13:30:38;23.30;99.90
4279;DHT22;2153;47.744;10.580;2022-08-27T13:33:09;23.30;99.90
4279;DHT22;2153;47.744;10.580;2022-08-27T13:35:40;23.20;99.90
4279;DHT22;2153;47.744;10.580;2022-08-27T13:38:08;23.10;99.90
4279;DHT22;2153;47.744;10.580;2022-08-27T13:40:36;23.00;99.90
4279;DHT22;2153;47.744;10.580;2022-08-27T13:43:06;22.90;99.90
4279;DHT22;2153;47.744;10.580;2022-08-27T13:45:35;22.90;99.90
4279;DHT22;2153;47.744;10.580;2022-08-27T13:48:04;22.80;99.90
4279;DHT22;2153;47.744;10.580;2022-08-27T13:50:32;22.60;99.90
4279;DHT22;2153;47.744;10.580;2022-08-27T13:53:04;22.70;99.90
4279;DHT22;2153;47.744;10.580;2022-08-27T13:55:49;22.60;99.90
4279;DHT22;2153;47.744;10.580;2022-08-27T13:58:22;22.70;99.90
4279;DHT22;2153;47.744;10.580;2022-08-27T14:00:49;22.70;99.90
4279;DHT22;2153;47.744;10.580;2022-08-27T14:03:30;22.70;99.90
4279;DHT22;2153;47.744;10.580;2022-08-27T14:05:58;22.80;99.90
4279;DHT22;2153;47.744;10.580;2022-08-27T14:08:29;22.70;99.90
4279;DHT22;2153;47.744;10.580;2022-08-27T14:11:01;22.70;99.90
4279;DHT22;2153;47.744;10.580;2022-08-27T14:13:28;22.60;99.90
4279;DHT22;2153;47.744;10.580;2022-08-27T14:16:13;22.60;99.90
4279;DHT22;2153;47.744;10.580;2022-08-27T14:18:49;22.50;99.90
4279;DHT22;2153;47.744;10.580;2022-08-27T14:21:16;22.40;99.90
4279;DHT22;2153;47.744;10.580;2022-08-27T14:23:44;22.30;99.90
4279;DHT22;2153;47.744;10.580;2022-08-27T14:26:12;22.40;99.90
4279;DHT22;2153;47.744;10.580;2022-08-27T14:28:39;22.20;99.90
4279;DHT22;2153;47.744;10.580;2022-08-27T14:31:07;22.10;99.90
4279;DHT22;2153;47.744;10.580;2022-08-27T14:33:33;22.00;99.90
4279;DHT22;2153;47.744;10.580;2022-08-27T14:36:00;21.70;99.90
4279;DHT22;2153;47.744;10.580;2022-08-27T14:38:30;21.50;99.90
4279;DHT22;2153;47.744;10.580;2022-08-27T14:40:59;21.30;99.90
4279;DHT22;2153;47.744;10.580;2022-08-27T14:43:26;21.10;99.90
4279;DHT22;2153;47.744;10.580;2022-08-27T14:45:53;20.90;99.90
4279;DHT22;2153;47.744;10.580;2022-08-27T14:48:24;20.80;99.90
4279;DHT22;2153;47.744;10.580;2022-08-27T14:50:52;20.60;99.90
4279;DHT22;2153;47.744;10.580;2022-08-27T14:53:19;20.50;99.90
4279;DHT22;2153;47.744;10.580;2022-08-27T14:55:45;20.40;99.90
4279;DHT22;2153;47.744;10.580;2022-08-27T14:58:14;20.30;99.90
4279;DHT22;2153;47.744;10.580;2022-08-27T15:00:41;20.20;99.90
4279;DHT22;2153;47.744;10.580;2022-08-27T15:03:09;20.20;99.90
4279;DHT22;2153;47.744;10.580;2022-08-27T15:05:36;20.20;99.90
4279;DHT22;2153;47.744;10.580;2022-08-27T15:08:02;20.20;99.90
4279;DHT22;2153;47.744;10.580;2022-08-27T15:10:30;20.20;99.90
4279;DHT22;2153;47.744;10.580;2022-08-27T15:12:57;20.00;99.90
4279;DHT22;2153;47.744;10.580;2022-08-27T15:15:25;20.10;99.90
4279;DHT22;2153;47.744;10.580;2022-08-27T15:17:52;20.10;99.90
4279;DHT22;2153;47.744;10.580;2022-08-27T15:20:18;20.10;99.90
4279;DHT22;2153;47.744;10.580;2022-08-27T15:22:49;20.20;99.90
4279;DHT22;2153;47.744;10.580;2022-08-27T15:25:17;20.20;99.90
4279;DHT22;2153;47.744;10.580;2022-08-27T15:27:44;20.10;99.90
4279;DHT22;2153;47.744;10.580;2022-08-27T15:30:13;20.10;99.90
4279;DHT22;2153;47.744;10.580;2022-08-27T15:32:43;20.00;99.90
4279;DHT22;2153;47.744;10.580;2022-08-27T15:35:12;19.90;99.90
4279;DHT22;2153;47.744;10.580;2022-08-27T15:37:40;19.90;99.90
4279;DHT22;2153;47.744;10.580;2022-08-27T15:40:08;19.90;99.90
4279;DHT22;2153;47.744;10.580;2022-08-27T15:42:35;19.90;99.90
4279;DHT22;2153;47.744;10.580;2022-08-27T15:45:02;20.00;99.90
4279;DHT22;2153;47.744;10.580;2022-08-27T15:47:29;19.90;99.90
4279;DHT22;2153;47.744;10.580;2022-08-27T15:49:57;19.90;99.90
4279;DHT22;2153;47.744;10.580;2022-08-27T15:52:24;19.80;99.90
4279;DHT22;2153;47.744;10.580;2022-08-27T15:54:51;19.80;99.90
4279;DHT22;2153;47.744;10.580;2022-08-27T15:57:19;19.90;99.90
4279;DHT22;2153;47.744;10.580;2022-08-27T15:59:46;20.00;99.90
4279;DHT22;2153;47.744;10.580;2022-08-27T16:02:15;20.00;99.90
4279;DHT22;2153;47.744;10.580;2022-08-27T16:04:43;20.00;99.90